sensor_id;sensor_type;location;lat;lon;timestamp;pressure;altitude;pressure_sealevel;temperature;humidity
22688;BME280;11511;51.514;7.080;2022-12-18T00:01:26;102330.59;;;-11.35;100.00
22688;BME280;11511;51.514;7.080;2022-12-18T00:03:54;102324.63;;;-11.36;100.00
22688;BME280;11511;51.514;7.080;2022-12-18T00:06:22;102327.69;;;-11.40;100.00
22688;BME280;11511;51.514;7.080;2022-12-18T00:08:48;102327.75;;;-11.50;100.00
22688;BME280;11511;51.514;7.080;2022-12-18T00:11:19;102329.63;;;-11.47;100.00
22688;BME280;11511;51.514;7.080;2022-12-18T00:13:45;102334.06;;;-11.45;100.00
22688;BME280;11511;51.514;7.080;2022-12-18T00:16:14;102338.13;;;-11.47;100.00
22688;BME280;11511;51.514;7.080;2022-12-18T00:18:41;102343.66;;;-11.52;100.00
22688;BME280;11511;51.514;7.080;2022-12-18T00:21:08;102340.34;;;-11.51;100.00
22688;BME280;11511;51.514;7.080;2022-12-18T00:23:37;102331.06;;;-11.51;100.00
22688;BME280;11511;51.514;7.080;2022-12-18T00:26:06;102323.13;;;-11.44;100.00
22688;BME280;11511;51.514;7.080;2022-12-18T00:28:33;102322.13;;;-11.46;100.00
22688;BME280;11511;51.514;7.080;2022-12-18T00:31:04;102316.91;;;-11.47;100.00
22688;BME280;11511;51.514;7.080;2022-12-18T00:33:30;102316.25;;;-11.45;100.00
22688;BME280;11511;51.514;7.080;2022-12-18T00:36:14;102313.91;;;-11.53;100.00
22688;BME280;11511;51.514;7.080;2022-12-18T00:38:41;102315.03;;;-11.50;100.00
22688;BME280;11511;51.514;7.080;2022-12-18T00:41:08;102327.13;;;-11.57;100.00
22688;BME280;11511;51.514;7.080;2022-12-18T00:43:36;102323.44;;;-11.51;100.00
22688;BME280;11511;51.514;7.080;2022-12-18T00:46:02;102325.84;;;-11.52;100.00
22688;BME280;11511;51.514;7.080;2022-12-18T00:48:28;102325.50;;;-11.57;100.00
22688;BME280;11511;51.514;7.080;2022-12-18T00:50:54;102322.81;;;-11.58;100.00
22688;BME280;11511;51.514;7.080;2022-12-18T00:53:20;102325.88;;;-11.63;100.00
22688;BME280;11511;51.514;7.080;2022-12-18T00:55:45;102328.31;;;-11.64;100.00
22688;BME280;11511;51.514;7.080;2022-12-18T00:58:13;102323.38;;;-11.73;100.00
22688;BME280;11511;51.514;7.080;2022-12-18T01:00:40;102313.41;;;-11.59;100.00
22688;BME280;11511;51.514;7.080;2022-12-18T01:03:06;102313.44;;;-11.70;100.00
22688;BME280;11511;51.514;7.080;2022-12-18T01:05:32;102308.00;;;-11.74;100.00
22688;BME280;11511;51.514;7.080;2022-12-18T01:07:59;102315.75;;;-11.73;100.00
22688;BME280;11511;51.514;7.080;2022-12-18T01:10:24;102322.47;;;-11.73;100.00
22688;BME280;11511;51.514;7.080;2022-12-18T01:12:51;102322.81;;;-11.80;100.00
22688;BME280;11511;51.514;7.080;2022-12-18T01:15:18;102324.09;;;-11.85;100.00
22688;BME280;11511;51.514;7.080;2022-12-18T01:17:44;102326.63;;;-11.85;100.00
22688;BME280;11511;51.514;7.080;2022-12-18T01:20:12;102330.19;;;-11.83;100.00
22688;BME280;11511;51.514;7.080;2022-12-18T01:22:38;102333.25;;;-11.87;100.00
22688;BME280;11511;51.514;7.080;2022-12-18T01:25:04;102327.13;;;-11.89;100.00
22688;BME280;11511;51.514;7.080;2022-12-18T01:27:31;102331.22;;;-11.70;100.00
22688;BME280;11511;51.514;7.080;2022-12-18T01:29:58;102323.06;;;-11.77;100.00
22688;BME280;11511;51.514;7.080;2022-12-18T01:32:25;102321.28;;;-11.78;100.00
22688;BME280;11511;51.514;7.080;2022-12-18T01:34:50;102322.81;;;-11.80;100.00
22688;BME280;11511;51.514;7.080;2022-12-18T01:37:16;102321.41;;;-11.77;100.00
22688;BME280;11511;51.514;7.080;2022-12-18T01:39:43;102319.13;;;-11.84;100.00
22688;BME280;11511;51.514;7.080;2022-12-18T01:42:13;102313.66;;;-11.78;100.00
22688;BME280;11511;51.514;7.080;2022-12-18T01:45:05;102304.91;;;-11.82;100.00
22688;BME280;11511;51.514;7.080;2022-12-18T01:47:47;102306.16;;;-11.77;100.00
22688;BME280;11511;51.514;7.080;2022-12-18T01:50:20;102307.88;;;-11.76;100.00
22688;BME280;11511;51.514;7.080;2022-12-18T01:52:57;102316.97;;;-11.79;100.00
22688;BME280;11511;51.514;7.080;2022-12-18T01:55:26;102319.00;;;-11.85;100.00
22688;BME280;11511;51.514;7.080;2022-12-18T01:57:55;102311.50;;;-11.84;100.00
22688;BME280;11511;51.514;7.080;2022-12-18T02:00:23;102300.72;;;-11.81;100.00
22688;BME280;11511;51.514;7.080;2022-12-18T02:02:50;102307.44;;;-11.82;100.00
22688;BME280;11511;51.514;7.080;2022-12-18T02:08:15;102293.47;;;-11.87;100.00
22688;BME280;11511;51.514;7.080;2022-12-18T02:18:45;102310.50;;;-11.96;100.00
22688;BME280;11511;51.514;7.080;2022-12-18T02:26:50;102290.31;;;-11.94;100.00
22688;BME280;11511;51.514;7.080;2022-12-18T02:29:23;102286.38;;;-11.91;100.00
22688;BME280;11511;51.514;7.080;2022-12-18T02:31:56;102281.38;;;-11.79;100.00
22688;BME280;11511;51.514;7.080;2022-12-18T02:34:29;102282.28;;;-11.79;100.00
22688;BME280;11511;51.514;7.080;2022-12-18T02:36:58;102283.28;;;-11.77;100.00
22688;BME280;11511;51.514;7.080;2022-12-18T02:39:27;102280.41;;;-11.91;100.00
22688;BME280;11511;51.514;7.080;2022-12-18T02:42:02;102278.88;;;-11.89;100.00
22688;BME280;11511;51.514;7.080;2022-12-18T02:44:34;102289.16;;;-11.88;100.00
22688;BME280;11511;51.514;7.080;2022-12-18T02:47:02;102297.69;;;-11.98;100.00
22688;BME280;11511;51.514;7.080;2022-12-18T02:49:38;102289.41;;;-11.95;100.00
22688;BME280;11511;51.514;7.080;2022-12-18T02:52:20;102289.06;;;-12.00;100.00
22688;BME280;11511;51.514;7.080;2022-12-18T02:54:57;102297.94;;;-11.94;100.00
22688;BME280;11511;51.514;7.080;2022-12-18T02:57:35;102298.81;;;-11.94;100.00
22688;BME280;11511;51.514;7.080;2022-12-18T03:02:45;102297.28;;;-11.92;100.00
22688;BME280;11511;51.514;7.080;2022-12-18T03:05:16;102302.00;;;-11.97;100.00
22688;BME280;11511;51.514;7.080;2022-12-18T03:07:56;102306.56;;;-11.82;100.00
22688;BME280;11511;51.514;7.080;2022-12-18T03:10:28;102303.91;;;-11.62;100.00
22688;BME280;11511;51.514;7.080;2022-12-18T03:13:06;102299.44;;;-11.86;100.00
22688;BME280;11511;51.514;7.080;2022-12-18T03:15:37;102300.34;;;-11.96;100.00
22688;BME280;11511;51.514;7.080;2022-12-18T03:18:14;102294.34;;;-11.76;100.00
22688;BME280;11511;51.514;7.080;2022-12-18T03:20:44;102292.34;;;-11.90;100.00
22688;BME280;11511;51.514;7.080;2022-12-18T03:23:21;102287.66;;;-11.96;100.00
22688;BME280;11511;51.514;7.080;2022-12-18T03:25:51;102278.13;;;-11.99;100.00
22688;BME280;11511;51.514;7.080;2022-12-18T03:28:21;102268.34;;;-11.94;100.00
22688;BME280;11511;51.514;7.080;2022-12-18T03:30:57;102274.44;;;-11.92;100.00
22688;BME280;11511;51.514;7.080;2022-12-18T03:33:28;102282.81;;;-11.93;100.00
22688;BME280;11511;51.514;7.080;2022-12-18T03:35:56;102279.31;;;-12.05;100.00
22688;BME280;11511;51.514;7.080;2022-12-18T03:38:22;102279.78;;;-11.99;100.00
22688;BME280;11511;51.514;7.080;2022-12-18T03:41:04;102290.81;;;-11.88;100.00
22688;BME280;11511;51.514;7.080;2022-12-18T03:46:26;102282.75;;;-12.05;100.00
22688;BME280;11511;51.514;7.080;2022-12-18T03:49:23;102273.66;;;-11.91;100.00
22688;BME280;11511;51.514;7.080;2022-12-18T03:52:06;102272.53;;;-11.94;100.00
22688;BME280;11511;51.514;7.080;2022-12-18T03:54:38;102279.00;;;-11.98;100.00
22688;BME280;11511;51.514;7.080;2022-12-18T03:57:16;102278.50;;;-11.94;100.00
22688;BME280;11511;51.514;7.080;2022-12-18T03:59:46;102274.06;;;-11.97;100.00
22688;BME280;11511;51.514;7.080;2022-12-18T04:02:16;102274.94;;;-11.96;100.00
22688;BME280;11511;51.514;7.080;2022-12-18T04:04:43;102275.19;;;-11.93;100.00
22688;BME280;11511;51.514;7.080;2022-12-18T04:07:10;102276.47;;;-11.98;100.00
22688;BME280;11511;51.514;7.080;2022-12-18T04:09:38;102276.34;;;-12.00;100.00
22688;BME280;11511;51.514;7.080;2022-12-18T04:12:05;102269.38;;;-12.02;100.00
22688;BME280;11511;51.514;7.080;2022-12-18T04:14:31;102276.00;;;-12.04;100.00
22688;BME280;11511;51.514;7.080;2022-12-18T04:17:02;102264.97;;;-12.05;100.00
22688;BME280;11511;51.514;7.080;2022-12-18T04:19:30;102274.56;;;-12.01;100.00
22688;BME280;11511;51.514;7.080;2022-12-18T04:21:57;102272.03;;;-12.01;100.00
22688;BME280;11511;51.514;7.080;2022-12-18T04:24:23;102267.50;;;-12.05;100.00
22688;BME280;11511;51.514;7.080;2022-12-18T04:27:00;102269.53;;;-12.11;100.00
22688;BME280;11511;51.514;7.080;2022-12-18T04:29:32;102269.38;;;-12.02;100.00
22688;BME280;11511;51.514;7.080;2022-12-18T04:31:58;102266.06;;;-12.01;100.00
22688;BME280;11511;51.514;7.080;2022-12-18T04:34:26;102268.38;;;-12.04;100.00
22688;BME280;11511;51.514;7.080;2022-12-18T04:36:53;102270.25;;;-12.02;100.00
22688;BME280;11511;51.514;7.080;2022-12-18T04:39:20;102273.22;;;-12.07;100.00
22688;BME280;11511;51.514;7.080;2022-12-18T04:41:48;102268.53;;;-12.13;100.00
22688;BME280;11511;51.514;7.080;2022-12-18T04:44:14;102275.66;;;-12.19;100.00
22688;BME280;11511;51.514;7.080;2022-12-18T04:46:40;102265.22;;;-12.12;100.00
22688;BME280;11511;51.514;7.080;2022-12-18T04:49:06;102260.91;;;-12.13;100.00
22688;BME280;11511;51.514;7.080;2022-12-18T04:51:33;102266.13;;;-12.11;100.00
22688;BME280;11511;51.514;7.080;2022-12-18T04:53:58;102263.31;;;-12.14;100.00
22688;BME280;11511;51.514;7.080;2022-12-18T04:56:24;102259.78;;;-12.16;100.00
22688;BME280;11511;51.514;7.080;2022-12-18T04:58:50;102254.56;;;-12.18;100.00
22688;BME280;11511;51.514;7.080;2022-12-18T05:01:17;102255.97;;;-12.21;100.00
22688;BME280;11511;51.514;7.080;2022-12-18T05:03:43;102250.50;;;-12.16;100.00
22688;BME280;11511;51.514;7.080;2022-12-18T05:06:09;102244.53;;;-12.16;100.00
22688;BME280;11511;51.514;7.080;2022-12-18T05:08:35;102242.13;;;-12.15;100.00
22688;BME280;11511;51.514;7.080;2022-12-18T05:11:07;102238.19;;;-12.21;100.00
22688;BME280;11511;51.514;7.080;2022-12-18T05:13:35;102236.81;;;-12.28;100.00
22688;BME280;11511;51.514;7.080;2022-12-18T05:16:01;102235.25;;;-12.16;100.00
22688;BME280;11511;51.514;7.080;2022-12-18T05:18:28;102230.56;;;-12.21;100.00
22688;BME280;11511;51.514;7.080;2022-12-18T05:20:54;102230.19;;;-12.26;100.00
22688;BME280;11511;51.514;7.080;2022-12-18T05:23:21;102234.75;;;-12.22;100.00
22688;BME280;11511;51.514;7.080;2022-12-18T05:25:55;102233.25;;;-12.20;100.00
22688;BME280;11511;51.514;7.080;2022-12-18T05:28:24;102231.72;;;-12.28;100.00
22688;BME280;11511;51.514;7.080;2022-12-18T05:30:53;102230.97;;;-12.27;100.00
22688;BME280;11511;51.514;7.080;2022-12-18T05:33:20;102232.16;;;-12.34;100.00
22688;BME280;11511;51.514;7.080;2022-12-18T05:36:03;102228.97;;;-12.31;100.00
22688;BME280;11511;51.514;7.080;2022-12-18T05:38:31;102231.22;;;-12.24;100.00
22688;BME280;11511;51.514;7.080;2022-12-18T05:40:58;102234.13;;;-12.29;100.00
22688;BME280;11511;51.514;7.080;2022-12-18T05:43:25;102230.38;;;-12.35;100.00
22688;BME280;11511;51.514;7.080;2022-12-18T05:45:51;102229.34;;;-12.37;100.00
22688;BME280;11511;51.514;7.080;2022-12-18T05:48:18;102244.41;;;-12.28;100.00
22688;BME280;11511;51.514;7.080;2022-12-18T05:50:46;102249.78;;;-12.35;100.00
22688;BME280;11511;51.514;7.080;2022-12-18T05:53:13;102251.06;;;-12.40;100.00
22688;BME280;11511;51.514;7.080;2022-12-18T05:55:41;102259.56;;;-12.40;100.00
22688;BME280;11511;51.514;7.080;2022-12-18T05:58:09;102260.06;;;-12.34;100.00
22688;BME280;11511;51.514;7.080;2022-12-18T06:00:38;102256.00;;;-12.42;100.00
22688;BME280;11511;51.514;7.080;2022-12-18T06:03:09;102258.16;;;-12.36;100.00
22688;BME280;11511;51.514;7.080;2022-12-18T06:05:36;102257.91;;;-12.39;100.00
22688;BME280;11511;51.514;7.080;2022-12-18T06:08:02;102268.84;;;-12.40;100.00
22688;BME280;11511;51.514;7.080;2022-12-18T06:10:28;102277.59;;;-12.37;100.00
22688;BME280;11511;51.514;7.080;2022-12-18T06:12:54;102286.09;;;-12.46;100.00
22688;BME280;11511;51.514;7.080;2022-12-18T06:15:20;102287.75;;;-12.47;100.00
22688;BME280;11511;51.514;7.080;2022-12-18T06:17:45;102298.53;;;-12.39;100.00
22688;BME280;11511;51.514;7.080;2022-12-18T06:20:11;102296.88;;;-12.39;100.00
22688;BME280;11511;51.514;7.080;2022-12-18T06:22:37;102302.84;;;-12.38;100.00
22688;BME280;11511;51.514;7.080;2022-12-18T06:25:03;102307.53;;;-12.53;100.00
22688;BME280;11511;51.514;7.080;2022-12-18T06:27:29;102302.09;;;-12.47;100.00
22688;BME280;11511;51.514;7.080;2022-12-18T06:29:55;102301.34;;;-12.36;100.00
22688;BME280;11511;51.514;7.080;2022-12-18T06:32:20;102302.84;;;-12.38;100.00
22688;BME280;11511;51.514;7.080;2022-12-18T06:34:46;102304.00;;;-12.45;100.00
22688;BME280;11511;51.514;7.080;2022-12-18T06:37:12;102307.28;;;-12.46;100.00
22688;BME280;11511;51.514;7.080;2022-12-18T06:39:38;102298.03;;;-12.55;100.00
22688;BME280;11511;51.514;7.080;2022-12-18T06:42:04;102298.41;;;-12.51;100.00
22688;BME280;11511;51.514;7.080;2022-12-18T06:44:31;102288.13;;;-12.42;100.00
22688;BME280;11511;51.514;7.080;2022-12-18T06:46:56;102293.84;;;-12.55;100.00
22688;BME280;11511;51.514;7.080;2022-12-18T06:49:22;102279.75;;;-12.41;100.00
22688;BME280;11511;51.514;7.080;2022-12-18T06:51:48;102272.63;;;-12.45;100.00
22688;BME280;11511;51.514;7.080;2022-12-18T06:54:14;102266.28;;;-12.50;100.00
22688;BME280;11511;51.514;7.080;2022-12-18T06:56:40;102264.91;;;-12.57;100.00
22688;BME280;11511;51.514;7.080;2022-12-18T06:59:06;102266.16;;;-12.52;100.00
22688;BME280;11511;51.514;7.080;2022-12-18T07:01:31;102259.47;;;-12.61;100.00
22688;BME280;11511;51.514;7.080;2022-12-18T07:03:57;102258.59;;;-12.62;100.00
22688;BME280;11511;51.514;7.080;2022-12-18T07:06:24;102249.56;;;-12.58;100.00
22688;BME280;11511;51.514;7.080;2022-12-18T07:08:51;102256.03;;;-12.62;100.00
22688;BME280;11511;51.514;7.080;2022-12-18T07:11:18;102251.47;;;-12.66;100.00
22688;BME280;11511;51.514;7.080;2022-12-18T07:13:44;102241.31;;;-12.66;100.00
22688;BME280;11511;51.514;7.080;2022-12-18T07:16:13;102247.81;;;-12.59;100.00
22688;BME280;11511;51.514;7.080;2022-12-18T07:18:39;102247.91;;;-12.58;100.00
22688;BME280;11511;51.514;7.080;2022-12-18T07:21:07;102252.75;;;-12.61;100.00
22688;BME280;11511;51.514;7.080;2022-12-18T07:23:34;102245.25;;;-12.59;100.00
22688;BME280;11511;51.514;7.080;2022-12-18T07:26:04;102249.03;;;-12.54;100.00
22688;BME280;11511;51.514;7.080;2022-12-18T07:28:31;102236.09;;;-12.57;100.00
22688;BME280;11511;51.514;7.080;2022-12-18T07:30:57;102235.72;;;-12.52;100.00
22688;BME280;11511;51.514;7.080;2022-12-18T07:33:25;102234.81;;;-12.52;100.00
22688;BME280;11511;51.514;7.080;2022-12-18T07:35:51;102232.03;;;-12.45;100.00
22688;BME280;11511;51.514;7.080;2022-12-18T07:38:17;102228.34;;;-12.49;100.00
22688;BME280;11511;51.514;7.080;2022-12-18T07:40:42;102227.59;;;-12.48;100.00
22688;BME280;11511;51.514;7.080;2022-12-18T07:43:08;102225.94;;;-12.37;100.00
22688;BME280;11511;51.514;7.080;2022-12-18T07:45:33;102227.97;;;-12.33;100.00
22688;BME280;11511;51.514;7.080;2022-12-18T07:47:59;102219.66;;;-12.31;100.00
22688;BME280;11511;51.514;7.080;2022-12-18T07:50:25;102233.13;;;-12.21;100.00
22688;BME280;11511;51.514;7.080;2022-12-18T07:52:51;102236.41;;;-12.12;100.00
22688;BME280;11511;51.514;7.080;2022-12-18T07:55:17;102236.06;;;-11.95;100.00
22688;BME280;11511;51.514;7.080;2022-12-18T07:57:42;102236.44;;;-11.90;100.00
22688;BME280;11511;51.514;7.080;2022-12-18T08:00:08;102244.38;;;-11.54;100.00
22688;BME280;11511;51.514;7.080;2022-12-18T08:02:38;102248.16;;;-10.94;100.00
22688;BME280;11511;51.514;7.080;2022-12-18T08:05:04;102243.59;;;-11.09;100.00
22688;BME280;11511;51.514;7.080;2022-12-18T08:07:30;102237.47;;;-10.44;100.00
22688;BME280;11511;51.514;7.080;2022-12-18T08:09:56;102245.00;;;-10.22;100.00
22688;BME280;11511;51.514;7.080;2022-12-18T08:12:21;102242.50;;;-9.98;100.00
22688;BME280;11511;51.514;7.080;2022-12-18T08:14:47;102246.84;;;-9.85;100.00
22688;BME280;11511;51.514;7.080;2022-12-18T08:17:13;102241.75;;;-9.85;100.00
22688;BME280;11511;51.514;7.080;2022-12-18T08:19:38;102231.28;;;-9.65;100.00
22688;BME280;11511;51.514;7.080;2022-12-18T08:22:05;102219.75;;;-9.60;100.00
22688;BME280;11511;51.514;7.080;2022-12-18T08:24:31;102227.31;;;-9.36;100.00
22688;BME280;11511;51.514;7.080;2022-12-18T08:26:56;102207.91;;;-9.34;100.00
22688;BME280;11511;51.514;7.080;2022-12-18T08:29:22;102212.16;;;-9.22;100.00
22688;BME280;11511;51.514;7.080;2022-12-18T08:31:48;102213.63;;;-9.25;100.00
22688;BME280;11511;51.514;7.080;2022-12-18T08:34:13;102195.56;;;-9.03;100.00
22688;BME280;11511;51.514;7.080;2022-12-18T08:36:41;102188.25;;;-8.72;100.00
22688;BME280;11511;51.514;7.080;2022-12-18T08:39:07;102186.94;;;-8.54;100.00
22688;BME280;11511;51.514;7.080;2022-12-18T08:41:33;102189.88;;;-8.35;100.00
22688;BME280;11511;51.514;7.080;2022-12-18T08:43:58;102190.91;;;-8.18;100.00
22688;BME280;11511;51.514;7.080;2022-12-18T08:46:43;102184.13;;;-8.18;100.00
22688;BME280;11511;51.514;7.080;2022-12-18T08:49:11;102171.94;;;-8.08;100.00
22688;BME280;11511;51.514;7.080;2022-12-18T08:51:38;102169.88;;;-8.01;100.00
22688;BME280;11511;51.514;7.080;2022-12-18T08:54:04;102174.84;;;-7.76;100.00
22688;BME280;11511;51.514;7.080;2022-12-18T08:56:30;102175.06;;;-7.45;100.00
22688;BME280;11511;51.514;7.080;2022-12-18T08:58:56;102178.13;;;-7.23;100.00
22688;BME280;11511;51.514;7.080;2022-12-18T09:01:22;102175.16;;;-7.01;100.00
22688;BME280;11511;51.514;7.080;2022-12-18T09:03:49;102165.28;;;-6.95;100.00
22688;BME280;11511;51.514;7.080;2022-12-18T09:06:17;102165.81;;;-6.71;100.00
22688;BME280;11511;51.514;7.080;2022-12-18T09:08:44;102161.91;;;-6.50;100.00
22688;BME280;11511;51.514;7.080;2022-12-18T09:11:22;102158.63;;;-6.32;100.00
22688;BME280;11511;51.514;7.080;2022-12-18T09:13:49;102159.03;;;-6.10;100.00
22688;BME280;11511;51.514;7.080;2022-12-18T09:16:16;102146.06;;;-5.97;100.00
22688;BME280;11511;51.514;7.080;2022-12-18T09:18:42;102137.66;;;-5.78;100.00
22688;BME280;11511;51.514;7.080;2022-12-18T09:21:19;102137.97;;;-5.72;100.00
22688;BME280;11511;51.514;7.080;2022-12-18T09:23:49;102137.56;;;-5.63;100.00
22688;BME280;11511;51.514;7.080;2022-12-18T09:26:16;102139.66;;;-5.56;100.00
22688;BME280;11511;51.514;7.080;2022-12-18T09:28:42;102143.28;;;-5.53;100.00
22688;BME280;11511;51.514;7.080;2022-12-18T09:31:09;102142.47;;;-5.35;100.00
22688;BME280;11511;51.514;7.080;2022-12-18T09:33:36;102132.81;;;-5.07;100.00
22688;BME280;11511;51.514;7.080;2022-12-18T09:36:04;102134.53;;;-4.90;100.00
22688;BME280;11511;51.514;7.080;2022-12-18T09:38:31;102129.94;;;-4.79;100.00
22688;BME280;11511;51.514;7.080;2022-12-18T09:43:52;102142.56;;;-4.14;100.00
22688;BME280;11511;51.514;7.080;2022-12-18T09:46:28;102132.59;;;-4.06;100.00
22688;BME280;11511;51.514;7.080;2022-12-18T09:48:59;102138.91;;;-4.00;100.00
22688;BME280;11511;51.514;7.080;2022-12-18T09:51:39;102132.84;;;-3.83;100.00
22688;BME280;11511;51.514;7.080;2022-12-18T09:54:14;102144.88;;;-3.83;100.00
22688;BME280;11511;51.514;7.080;2022-12-18T09:56:42;102150.69;;;-3.87;100.00
22688;BME280;11511;51.514;7.080;2022-12-18T09:59:26;102143.84;;;-3.87;100.00
22688;BME280;11511;51.514;7.080;2022-12-18T10:01:56;102154.88;;;-4.25;100.00
22688;BME280;11511;51.514;7.080;2022-12-18T10:04:21;102150.06;;;-3.82;100.00
22688;BME280;11511;51.514;7.080;2022-12-18T10:07:04;102129.69;;;-3.77;100.00
22688;BME280;11511;51.514;7.080;2022-12-18T10:09:37;102126.06;;;-3.63;100.00
22688;BME280;11511;51.514;7.080;2022-12-18T10:15:08;102099.94;;;-3.90;100.00
22688;BME280;11511;51.514;7.080;2022-12-18T10:20:27;102091.47;;;-3.49;100.00
22688;BME280;11511;51.514;7.080;2022-12-18T10:23:11;102094.56;;;-3.17;100.00
22688;BME280;11511;51.514;7.080;2022-12-18T10:28:30;102088.63;;;-2.95;100.00
22688;BME280;11511;51.514;7.080;2022-12-18T10:30:56;102088.47;;;-2.98;100.00
22688;BME280;11511;51.514;7.080;2022-12-18T10:33:23;102072.91;;;-2.60;100.00
22688;BME280;11511;51.514;7.080;2022-12-18T10:35:50;102065.31;;;-2.34;100.00
22688;BME280;11511;51.514;7.080;2022-12-18T10:40:57;102064.84;;;-1.30;100.00
22688;BME280;11511;51.514;7.080;2022-12-18T10:43:26;102064.88;;;-1.54;100.00
22688;BME280;11511;51.514;7.080;2022-12-18T10:46:16;102060.63;;;-1.03;100.00
22688;BME280;11511;51.514;7.080;2022-12-18T10:48:56;102058.78;;;-0.53;100.00
22688;BME280;11511;51.514;7.080;2022-12-18T10:51:33;102049.69;;;-0.14;100.00
22688;BME280;11511;51.514;7.080;2022-12-18T10:54:04;102044.59;;;-0.11;100.00
22688;BME280;11511;51.514;7.080;2022-12-18T10:56:31;102048.94;;;-0.10;100.00
22688;BME280;11511;51.514;7.080;2022-12-18T10:59:09;102049.56;;;0.12;100.00
22688;BME280;11511;51.514;7.080;2022-12-18T11:01:57;102038.56;;;0.19;100.00
22688;BME280;11511;51.514;7.080;2022-12-18T11:04:25;102035.59;;;0.07;100.00
22688;BME280;11511;51.514;7.080;2022-12-18T11:09:20;102033.69;;;-0.57;100.00
22688;BME280;11511;51.514;7.080;2022-12-18T11:11:49;102021.28;;;-0.68;100.00
22688;BME280;11511;51.514;7.080;2022-12-18T11:14:21;102024.78;;;-0.92;100.00
22688;BME280;11511;51.514;7.080;2022-12-18T11:16:49;102020.44;;;-0.66;100.00
22688;BME280;11511;51.514;7.080;2022-12-18T11:21:50;102024.00;;;-0.63;100.00
22688;BME280;11511;51.514;7.080;2022-12-18T11:24:31;102017.25;;;-1.12;100.00
22688;BME280;11511;51.514;7.080;2022-12-18T11:27:02;102009.28;;;-1.43;100.00
22688;BME280;11511;51.514;7.080;2022-12-18T11:29:33;102009.03;;;-1.25;100.00
22688;BME280;11511;51.514;7.080;2022-12-18T11:32:24;101999.38;;;-1.04;100.00
22688;BME280;11511;51.514;7.080;2022-12-18T11:34:59;101999.81;;;-1.17;100.00
22688;BME280;11511;51.514;7.080;2022-12-18T11:37:28;101990.53;;;-1.12;100.00
22688;BME280;11511;51.514;7.080;2022-12-18T11:40:30;101981.69;;;-1.19;100.00
22688;BME280;11511;51.514;7.080;2022-12-18T11:43:05;101979.25;;;-0.87;100.00
22688;BME280;11511;51.514;7.080;2022-12-18T11:45:41;101980.56;;;-1.00;100.00
22688;BME280;11511;51.514;7.080;2022-12-18T11:48:19;101959.09;;;-0.97;100.00
22688;BME280;11511;51.514;7.080;2022-12-18T11:50:55;101950.34;;;-1.01;100.00
22688;BME280;11511;51.514;7.080;2022-12-18T11:53:22;101942.53;;;-0.76;100.00
22688;BME280;11511;51.514;7.080;2022-12-18T11:58:45;101953.06;;;-0.70;100.00
22688;BME280;11511;51.514;7.080;2022-12-18T12:03:59;101947.69;;;-0.76;100.00
22688;BME280;11511;51.514;7.080;2022-12-18T12:06:58;101942.88;;;-0.65;100.00
22688;BME280;11511;51.514;7.080;2022-12-18T12:15:56;101945.72;;;-0.26;100.00
22688;BME280;11511;51.514;7.080;2022-12-18T12:29:46;101936.75;;;-0.67;100.00
22688;BME280;11511;51.514;7.080;2022-12-18T12:32:26;101935.84;;;-0.69;100.00
22688;BME280;11511;51.514;7.080;2022-12-18T12:40:30;101926.34;;;-0.40;100.00
22688;BME280;11511;51.514;7.080;2022-12-18T12:43:19;101910.41;;;-0.54;100.00
22688;BME280;11511;51.514;7.080;2022-12-18T12:45:54;101918.16;;;-0.54;100.00
22688;BME280;11511;51.514;7.080;2022-12-18T12:51:13;101923.31;;;-0.25;100.00
22688;BME280;11511;51.514;7.080;2022-12-18T12:53:41;101915.03;;;-0.14;100.00
22688;BME280;11511;51.514;7.080;2022-12-18T12:56:10;101917.69;;;-0.11;100.00
22688;BME280;11511;51.514;7.080;2022-12-18T12:58:46;101914.06;;;-0.17;100.00
22688;BME280;11511;51.514;7.080;2022-12-18T13:01:27;101908.44;;;-0.03;100.00
22688;BME280;11511;51.514;7.080;2022-12-18T13:07:03;101904.78;;;-0.09;100.00
22688;BME280;11511;51.514;7.080;2022-12-18T13:09:32;101909.16;;;-0.08;100.00
22688;BME280;11511;51.514;7.080;2022-12-18T13:12:04;101905.69;;;-0.09;100.00
22688;BME280;11511;51.514;7.080;2022-12-18T13:14:48;101908.13;;;-0.13;100.00
22688;BME280;11511;51.514;7.080;2022-12-18T13:20:06;101903.53;;;-0.23;100.00
22688;BME280;11511;51.514;7.080;2022-12-18T13:22:44;101906.00;;;-0.28;100.00
22688;BME280;11511;51.514;7.080;2022-12-18T13:25:30;101912.91;;;-0.27;100.00
22688;BME280;11511;51.514;7.080;2022-12-18T13:40:55;101902.81;;;-0.48;100.00
22688;BME280;11511;51.514;7.080;2022-12-18T13:46:00;101888.09;;;-0.50;100.00
22688;BME280;11511;51.514;7.080;2022-12-18T13:48:29;101883.03;;;-0.46;100.00
22688;BME280;11511;51.514;7.080;2022-12-18T13:51:03;101870.03;;;-0.17;100.00
22688;BME280;11511;51.514;7.080;2022-12-18T13:53:33;101859.66;;;0.14;100.00
22688;BME280;11511;51.514;7.080;2022-12-18T13:56:00;101845.19;;;0.22;100.00
22688;BME280;11511;51.514;7.080;2022-12-18T13:58:27;101844.56;;;0.32;100.00
22688;BME280;11511;51.514;7.080;2022-12-18T14:00:53;101833.41;;;0.35;100.00
22688;BME280;11511;51.514;7.080;2022-12-18T14:03:24;101836.97;;;0.40;100.00
22688;BME280;11511;51.514;7.080;2022-12-18T14:05:54;101833.56;;;0.41;100.00
22688;BME280;11511;51.514;7.080;2022-12-18T14:08:21;101825.09;;;0.48;100.00
22688;BME280;11511;51.514;7.080;2022-12-18T14:10:49;101826.09;;;0.55;100.00
22688;BME280;11511;51.514;7.080;2022-12-18T14:13:34;101814.88;;;0.56;100.00
22688;BME280;11511;51.514;7.080;2022-12-18T14:16:03;101814.84;;;0.53;100.00
22688;BME280;11511;51.514;7.080;2022-12-18T14:23:45;101795.78;;;0.51;100.00
22688;BME280;11511;51.514;7.080;2022-12-18T14:26:28;101801.13;;;0.58;100.00
22688;BME280;11511;51.514;7.080;2022-12-18T14:28:56;101795.91;;;0.57;100.00